Terminal Aerodrome Forecast
Issued by NWS

Home | Current Version | Previous Version | Graphics & Text | Print | Product List | Glossary On
Versions: 1 2 3 4 5 6 7 8 9 10 11 12 13 14 15 16 17 18 19
412
FTUS43 KFGF 212339
TAFBJI
TAF
KBJI 212339Z 2200/2224 VRB03KT P6SM BKN250
     FM220300 VRB03KT P6SM BKN030
     FM220400 VRB03KT P6SM BKN060
     FM220700 00000KT 5SM BR BKN100
     FM221200 VRB03KT 3SM BR BKN008
     FM221500 09004KT P6SM OVC015
     FM221600 35004KT P6SM OVC015
     FM221800 34005KT 4SM -RA OVC015
     FM222200 35010KT 4SM -RASN OVC015=

USA.gov is the U.S. government's official web portal to all federal, state and local government web resources and services.